createdAt,value
2018-04-20T00:00:06.141Z,13.33
2018-04-20T00:02:31.944Z,13.47
2018-04-20T00:04:57.717Z,12.03
2018-04-20T00:07:23.500Z,11.30
2018-04-20T00:09:49.304Z,10.43
2018-04-20T00:12:15.086Z,11.57
2018-04-20T00:14:40.882Z,12.03
2018-04-20T00:17:06.660Z,11.50
2018-04-20T00:19:32.457Z,11.57
2018-04-20T00:21:58.277Z,11.60
2018-04-20T00:24:24.077Z,12.00
2018-04-20T00:26:49.869Z,12.73
2018-04-20T00:29:15.744Z,11.30
2018-04-20T00:31:41.485Z,12.03
2018-04-20T00:34:07.272Z,11.57
2018-04-20T00:36:33.237Z,11.67
2018-04-20T00:38:59.021Z,12.70
2018-04-20T00:41:24.809Z,11.07
2018-04-20T00:43:50.604Z,11.20
2018-04-20T00:46:16.388Z,11.13
2018-04-20T00:48:42.185Z,13.33
2018-04-20T00:51:08.146Z,13.90
2018-04-20T00:53:46.479Z,11.30
2018-04-20T00:56:12.263Z,11.50
2018-04-20T00:58:38.049Z,11.03
2018-04-20T01:01:03.893Z,11.57
2018-04-20T01:03:29.664Z,11.50
2018-04-20T01:05:55.447Z,10.90
2018-04-20T01:08:21.244Z,11.87
2018-04-20T01:10:47.017Z,12.30
2018-04-20T01:13:12.808Z,11.63
2018-04-20T01:15:38.592Z,12.70
2018-04-20T01:18:04.369Z,12.60
2018-04-20T01:20:30.153Z,13.10
2018-04-20T01:22:55.929Z,12.70
2018-04-20T01:25:21.709Z,11.93
2018-04-20T01:27:47.513Z,12.90
2018-04-20T01:30:13.277Z,12.80
2018-04-20T01:32:39.052Z,13.73
2018-04-20T01:35:04.872Z,12.60
2018-04-20T01:37:30.659Z,14.03
2018-04-20T01:39:56.453Z,12.53
2018-04-20T01:42:22.265Z,12.70
2018-04-20T01:44:48.039Z,13.33
2018-04-20T01:47:13.828Z,13.33
2018-04-20T01:49:39.645Z,14.93
2018-04-20T01:52:05.424Z,14.13
2018-04-20T01:54:31.325Z,14.03
2018-04-20T01:56:57.105Z,13.10
2018-04-20T01:59:22.919Z,15.43
2018-04-20T02:01:48.716Z,14.67
2018-04-20T02:04:14.491Z,15.67
2018-04-20T02:06:40.286Z,14.80
2018-04-20T02:09:06.068Z,13.60
2018-04-20T02:11:31.877Z,15.83
2018-04-20T02:13:57.654Z,15.47
2018-04-20T02:16:23.444Z,14.10
2018-04-20T02:18:49.569Z,16.40
2018-04-20T02:21:15.335Z,14.87
2018-04-20T02:23:41.142Z,15.97
2018-04-20T02:26:06.945Z,15.70
2018-04-20T02:28:32.718Z,16.20
2018-04-20T02:30:58.541Z,16.70
2018-04-20T02:33:24.337Z,17.30
2018-04-20T02:35:50.110Z,16.83
2018-04-20T02:38:15.895Z,16.80
2018-04-20T02:40:41.702Z,17.00
2018-04-20T02:43:07.837Z,16.47
2018-04-20T02:45:33.617Z,16.30
2018-04-20T02:47:59.403Z,17.77
2018-04-20T02:50:25.217Z,19.13
2018-04-20T02:52:51.020Z,18.17
2018-04-20T02:55:16.825Z,18.57
2018-04-20T02:57:42.852Z,18.50
2018-04-20T03:00:08.628Z,16.90
2018-04-20T03:02:34.410Z,16.80
2018-04-20T03:05:00.206Z,17.83
2018-04-20T03:07:26.016Z,17.67
2018-04-20T03:09:51.791Z,17.83
2018-04-20T03:12:17.588Z,17.90
2018-04-20T03:14:43.393Z,20.07
2018-04-20T03:17:09.170Z,31.90
2018-04-20T03:19:34.957Z,29.13
2018-04-20T03:22:00.765Z,50.67
2018-04-20T03:24:26.545Z,24.67
2018-04-20T03:26:52.355Z,27.53
2018-04-20T03:29:18.149Z,18.93
2018-04-20T03:31:43.916Z,35.93
2018-04-20T03:34:09.690Z,19.63
2018-04-20T03:36:35.501Z,20.33
2018-04-20T03:39:01.282Z,21.90
2018-04-20T03:41:27.064Z,20.43
2018-04-20T03:43:52.843Z,26.90
2018-04-20T03:46:18.648Z,25.27
2018-04-20T03:48:44.443Z,25.53
2018-04-20T03:51:10.225Z,24.37
2018-04-20T03:53:36.020Z,22.60
2018-04-20T03:56:01.797Z,22.13
2018-04-20T03:58:27.585Z,20.47
2018-04-20T04:00:53.410Z,20.93
2018-04-20T04:03:19.198Z,22.60
2018-04-20T04:05:44.964Z,22.03
2018-04-20T04:08:10.790Z,21.60
2018-04-20T04:10:36.590Z,22.20
2018-04-20T04:13:02.386Z,24.30
2018-04-20T04:15:28.161Z,23.63
2018-04-20T04:18:06.445Z,20.80
2018-04-20T04:20:36.045Z,21.83
2018-04-20T04:23:14.233Z,21.50
2018-04-20T04:25:52.474Z,20.67
2018-04-20T04:28:21.649Z,21.13
2018-04-20T04:30:47.465Z,22.57
2018-04-20T04:33:13.232Z,19.97
2018-04-20T04:35:39.041Z,21.00
2018-04-20T04:38:04.838Z,19.80
2018-04-20T04:40:30.638Z,21.17
2018-04-20T04:42:56.434Z,20.97
2018-04-20T04:45:22.217Z,21.27
2018-04-20T04:47:48.010Z,19.37
2018-04-20T04:50:14.020Z,33.83
2018-04-20T04:52:39.801Z,26.33
2018-04-20T04:55:05.608Z,27.93
2018-04-20T04:57:31.404Z,39.83
2018-04-20T04:59:57.189Z,41.67
2018-04-20T05:02:22.973Z,28.77
2018-04-20T05:04:48.785Z,27.67
2018-04-20T05:07:14.553Z,22.80
2018-04-20T05:09:40.341Z,28.40
2018-04-20T05:12:06.149Z,29.47
2018-04-20T05:14:31.930Z,27.73
2018-04-20T05:16:57.732Z,21.73
2018-04-20T05:19:23.562Z,26.47
2018-04-20T05:21:49.357Z,24.87
2018-04-20T05:24:15.138Z,24.80
2018-04-20T05:26:40.939Z,22.33
2018-04-20T05:29:06.727Z,30.33
2018-04-20T05:31:32.504Z,31.00
2018-04-20T05:33:58.301Z,38.77
2018-04-20T05:36:24.076Z,60.43
2018-04-20T05:38:49.861Z,24.50
2018-04-20T05:41:15.665Z,32.10
2018-04-20T05:43:41.470Z,22.30
2018-04-20T05:46:07.267Z,48.47
2018-04-20T05:48:33.081Z,22.57
2018-04-20T05:50:58.879Z,36.17
2018-04-20T05:53:24.677Z,25.73
2018-04-20T05:55:50.709Z,26.80
2018-04-20T05:58:16.526Z,38.83
2018-04-20T06:00:42.309Z,27.10
2018-04-20T06:03:08.117Z,25.20
2018-04-20T06:05:33.942Z,25.93
2018-04-20T06:07:59.758Z,24.77
2018-04-20T06:10:25.554Z,53.33
2018-04-20T06:12:51.388Z,31.73
2018-04-20T06:15:17.213Z,47.30
2018-04-20T06:17:43.066Z,47.27
2018-04-20T06:20:08.840Z,29.13
2018-04-20T06:22:34.676Z,27.40
2018-04-20T06:25:00.518Z,27.40
2018-04-20T06:27:26.321Z,28.17
2018-04-20T06:29:52.097Z,23.30
2018-04-20T06:32:17.924Z,27.10
2018-04-20T06:34:43.712Z,35.13
2018-04-20T06:37:09.500Z,29.50
2018-04-20T06:39:35.293Z,27.20
2018-04-20T06:42:01.080Z,21.37
2018-04-20T06:44:26.890Z,22.80
2018-04-20T06:46:52.669Z,19.80
2018-04-20T06:49:18.450Z,20.53
2018-04-20T06:51:44.299Z,22.93
2018-04-20T06:54:10.063Z,19.33
2018-04-20T06:56:35.873Z,20.53
2018-04-20T06:59:01.678Z,20.33
2018-04-20T07:01:27.460Z,20.03
2018-04-20T07:03:53.269Z,18.80
2018-04-20T07:06:19.104Z,20.80
2018-04-20T07:08:44.885Z,16.47
2018-04-20T07:11:10.697Z,19.77
2018-04-20T07:13:36.477Z,19.47
2018-04-20T07:16:02.273Z,19.23
2018-04-20T07:18:28.062Z,19.77
2018-04-20T07:20:53.869Z,23.10
2018-04-20T07:23:19.762Z,17.83
2018-04-20T07:25:45.533Z,20.90
2018-04-20T07:28:11.343Z,18.67
2018-04-20T07:30:37.162Z,19.50
2018-04-20T07:33:02.952Z,18.60
2018-04-20T07:35:28.773Z,24.40
2018-04-20T07:37:54.549Z,19.43
2018-04-20T07:40:20.720Z,18.87
2018-04-20T07:42:46.542Z,18.07
2018-04-20T07:45:12.323Z,15.73
2018-04-20T07:47:38.444Z,17.27
2018-04-20T07:50:04.327Z,17.90
2018-04-20T07:52:30.136Z,19.20
2018-04-20T07:54:55.974Z,17.10
2018-04-20T07:57:21.815Z,14.20
2018-04-20T07:59:47.619Z,17.07
2018-04-20T08:02:13.431Z,17.20
2018-04-20T08:04:39.249Z,18.97
2018-04-20T08:07:05.680Z,16.87
2018-04-20T08:09:31.757Z,26.73
2018-04-20T08:11:57.654Z,17.50
2018-04-20T08:14:23.633Z,15.73
2018-04-20T08:16:49.454Z,16.27
2018-04-20T08:19:15.278Z,23.47
2018-04-20T08:21:41.234Z,24.10
2018-04-20T08:24:07.023Z,20.00
2018-04-20T08:26:32.869Z,19.53
2018-04-20T08:28:58.670Z,16.40
2018-04-20T08:31:25.234Z,17.93
2018-04-20T08:33:51.050Z,17.90
2018-04-20T08:36:16.843Z,15.80
2018-04-20T08:38:42.669Z,19.17
2018-04-20T08:41:08.795Z,21.17
2018-04-20T08:43:34.645Z,18.00
2018-04-20T08:46:01.301Z,53.17
2018-04-20T08:48:27.142Z,14.83
2018-04-20T08:50:52.931Z,16.83
2018-04-20T08:53:18.723Z,14.20
2018-04-20T08:55:45.841Z,14.23
2018-04-20T08:58:11.661Z,14.53
2018-04-20T09:00:37.455Z,16.20
2018-04-20T09:03:03.268Z,12.43
2018-04-20T09:05:29.881Z,12.27
2018-04-20T09:07:55.709Z,14.80
2018-04-20T09:10:21.517Z,13.97
2018-04-20T09:12:47.322Z,13.50
2018-04-20T09:15:13.101Z,12.73
2018-04-20T09:17:39.264Z,12.07
2018-04-20T09:20:05.064Z,12.10
2018-04-20T09:22:30.861Z,11.80
2018-04-20T09:24:57.127Z,12.83
2018-04-20T09:27:22.916Z,12.23
2018-04-20T09:29:48.714Z,11.70
2018-04-20T09:32:14.527Z,10.87
2018-04-20T09:34:40.901Z,11.40
2018-04-20T09:37:06.700Z,12.50
2018-04-20T09:39:33.310Z,11.53
2018-04-20T09:41:59.143Z,12.60
2018-04-20T09:44:24.946Z,10.23
2018-04-20T09:46:50.749Z,11.50
2018-04-20T09:49:16.593Z,10.70
2018-04-20T09:51:43.241Z,10.83
2018-04-20T09:54:09.054Z,12.57
2018-04-20T09:56:34.882Z,11.80
2018-04-20T09:59:00.682Z,10.37
2018-04-20T10:01:26.765Z,12.17
2018-04-20T10:03:56.425Z,11.00
2018-04-20T10:06:22.914Z,14.03
2018-04-20T10:08:48.885Z,12.17
2018-04-20T10:11:14.679Z,10.50
2018-04-20T10:13:40.473Z,11.03
2018-04-20T10:16:07.864Z,11.93
2018-04-20T10:18:33.657Z,10.93
2018-04-20T10:20:59.483Z,10.53
2018-04-20T10:23:25.241Z,11.77
2018-04-20T10:25:51.342Z,12.20
2018-04-20T10:28:17.159Z,10.07
2018-04-20T10:30:42.965Z,10.70
2018-04-20T10:33:08.784Z,9.70
2018-04-20T10:35:34.599Z,9.47
2018-04-20T10:38:00.394Z,8.10
2018-04-20T10:40:26.182Z,9.93
2018-04-20T10:42:52.831Z,8.93
2018-04-20T10:45:18.628Z,9.80
2018-04-20T10:47:44.460Z,6.80
2018-04-20T10:50:10.358Z,9.90
2018-04-20T10:52:36.923Z,8.40
2018-04-20T10:55:02.737Z,7.97
2018-04-20T10:57:29.542Z,7.30
2018-04-20T10:59:55.342Z,8.53
2018-04-20T11:02:21.139Z,8.73
2018-04-20T11:04:46.954Z,5.60
2018-04-20T11:07:12.750Z,6.07
2018-04-20T11:09:38.557Z,8.23
2018-04-20T11:12:04.402Z,8.60
2018-04-20T11:14:30.207Z,7.30
2018-04-20T11:16:56.020Z,8.17
2018-04-20T11:19:21.918Z,7.40
2018-04-20T11:21:48.290Z,10.60
2018-04-20T11:24:14.094Z,5.03
2018-04-20T11:26:40.828Z,7.37
2018-04-20T11:29:06.629Z,8.90
2018-04-20T11:31:32.418Z,7.80
2018-04-20T11:33:58.233Z,9.23
2018-04-20T11:36:24.039Z,9.50
2018-04-20T11:38:49.863Z,9.10
2018-04-20T11:41:15.678Z,16.33
2018-04-20T11:43:42.136Z,20.13
2018-04-20T11:46:07.965Z,12.00
2018-04-20T11:48:34.921Z,10.30
2018-04-20T11:51:00.717Z,9.70
2018-04-20T11:53:26.519Z,9.57
2018-04-20T11:55:52.318Z,11.40
2018-04-20T11:58:18.122Z,10.77
2018-04-20T12:00:43.968Z,14.47
2018-04-20T12:03:09.749Z,12.83
2018-04-20T12:05:35.542Z,15.13
2018-04-20T12:08:01.365Z,16.70
2018-04-20T12:10:27.189Z,10.03
2018-04-20T12:12:53.038Z,11.80
2018-04-20T12:15:18.847Z,16.40
2018-04-20T12:17:44.629Z,13.83
2018-04-20T12:20:10.422Z,16.20
2018-04-20T12:22:36.213Z,19.57
2018-04-20T12:25:02.011Z,17.07
2018-04-20T12:27:27.831Z,15.93
2018-04-20T12:29:53.606Z,16.53
2018-04-20T12:32:19.399Z,15.93
2018-04-20T12:34:45.217Z,16.80
2018-04-20T12:37:11.030Z,16.50
2018-04-20T12:39:36.809Z,17.00
2018-04-20T12:42:02.635Z,15.63
2018-04-20T12:44:35.564Z,16.10
2018-04-20T12:47:01.390Z,18.80
2018-04-20T12:49:27.167Z,17.60
2018-04-20T12:51:52.986Z,19.27
2018-04-20T12:54:18.790Z,18.67
2018-04-20T12:56:44.594Z,17.20
2018-04-20T12:59:10.406Z,17.83
2018-04-20T13:01:37.077Z,21.13
2018-04-20T13:04:02.915Z,15.33
2018-04-20T13:06:28.719Z,21.03
2018-04-20T13:08:54.506Z,19.07
2018-04-20T13:11:20.362Z,16.03
2018-04-20T13:13:46.129Z,17.90
2018-04-20T13:16:11.965Z,16.43
2018-04-20T13:18:37.770Z,16.67
2018-04-20T13:21:03.573Z,14.73
2018-04-20T13:23:29.358Z,12.87
2018-04-20T13:25:55.214Z,13.90
2018-04-20T13:28:21.038Z,18.97
2018-04-20T13:30:46.822Z,26.03
2018-04-20T13:33:12.627Z,17.33
2018-04-20T13:35:38.431Z,19.97
2018-04-20T13:38:04.226Z,21.33
2018-04-20T13:40:30.026Z,19.03
2018-04-20T13:42:55.830Z,18.30
2018-04-20T13:45:21.632Z,22.17
2018-04-20T13:47:47.410Z,17.97
2018-04-20T13:50:13.350Z,22.00
2018-04-20T13:52:39.145Z,19.53
2018-04-20T13:55:04.945Z,24.50
2018-04-20T13:57:30.994Z,18.30
2018-04-20T13:59:56.785Z,16.50
2018-04-20T14:02:22.570Z,10.90
2018-04-20T14:04:48.457Z,12.20
2018-04-20T14:07:14.229Z,11.37
2018-04-20T14:09:40.025Z,7.90
2018-04-20T14:12:05.911Z,11.63
2018-04-20T14:14:31.688Z,11.53
2018-04-20T14:16:57.495Z,12.07
2018-04-20T14:19:23.278Z,13.03
2018-04-20T14:21:49.049Z,14.20
2018-04-20T14:24:14.878Z,11.33
2018-04-20T14:26:40.658Z,12.67
2018-04-20T14:29:06.465Z,14.13
2018-04-20T14:31:32.254Z,15.20
2018-04-20T14:33:58.229Z,13.60
2018-04-20T14:36:24.026Z,14.00
2018-04-20T14:38:49.810Z,16.03
2018-04-20T14:41:15.589Z,19.30
2018-04-20T14:43:41.455Z,17.37
2018-04-20T14:46:07.336Z,21.20
2018-04-20T14:48:33.158Z,19.40
2018-04-20T14:50:59.048Z,16.70
2018-04-20T14:53:24.785Z,15.20
2018-04-20T14:55:50.581Z,12.60
2018-04-20T14:58:16.380Z,13.00
2018-04-20T15:00:42.196Z,12.50
2018-04-20T15:03:08.146Z,11.87
2018-04-20T15:05:33.939Z,10.90
2018-04-20T15:07:59.736Z,11.00
2018-04-20T15:10:25.536Z,9.77
2018-04-20T15:12:51.318Z,9.37
2018-04-20T15:15:17.101Z,8.80
2018-04-20T15:17:42.895Z,10.90
2018-04-20T15:20:08.688Z,11.50
2018-04-20T15:22:34.474Z,13.90
2018-04-20T15:25:00.278Z,19.93
2018-04-20T15:27:26.065Z,19.93
2018-04-20T15:29:51.904Z,17.80
2018-04-20T15:32:17.673Z,19.70
2018-04-20T15:34:43.489Z,19.83
2018-04-20T15:37:09.320Z,20.70
2018-04-20T15:39:35.107Z,20.70
2018-04-20T15:42:00.890Z,23.50
2018-04-20T15:44:27.009Z,20.30
2018-04-20T15:46:52.847Z,23.10
2018-04-20T15:49:18.586Z,21.70
2018-04-20T15:51:44.421Z,24.70
2018-04-20T15:54:10.209Z,24.00
2018-04-20T15:56:35.989Z,23.10
2018-04-20T15:59:01.825Z,20.43
2018-04-20T16:01:27.627Z,23.13
2018-04-20T16:03:53.409Z,24.80
2018-04-20T16:06:19.189Z,27.40
2018-04-20T16:08:44.969Z,26.73
2018-04-20T16:11:10.780Z,28.60
2018-04-20T16:13:36.572Z,28.37
2018-04-20T16:16:02.352Z,28.67
2018-04-20T16:18:28.158Z,30.90
2018-04-20T16:20:53.942Z,30.87
2018-04-20T16:23:19.781Z,28.23
2018-04-20T16:25:45.629Z,28.60
2018-04-20T16:28:11.420Z,31.80
2018-04-20T16:30:37.215Z,32.97
2018-04-20T16:33:03.034Z,32.53
2018-04-20T16:35:28.825Z,30.87
2018-04-20T16:37:54.628Z,31.13
2018-04-20T16:40:20.727Z,34.47
2018-04-20T16:42:46.525Z,33.53
2018-04-20T16:45:12.326Z,30.40
2018-04-20T16:47:38.388Z,29.30
2018-04-20T16:50:04.197Z,33.77
2018-04-20T16:52:29.987Z,31.77
2018-04-20T16:54:55.874Z,31.60
2018-04-20T16:57:21.666Z,32.23
2018-04-20T16:59:47.441Z,33.37
2018-04-20T17:02:13.338Z,33.00
2018-04-20T17:04:39.128Z,33.50
2018-04-20T17:07:04.899Z,31.97
2018-04-20T17:09:30.917Z,33.80
2018-04-20T17:11:56.714Z,31.67
2018-04-20T17:14:22.517Z,31.83
2018-04-20T17:16:48.323Z,32.70
2018-04-20T17:19:14.132Z,33.20
2018-04-20T17:21:39.929Z,31.93
2018-04-20T17:24:05.837Z,32.47
2018-04-20T17:26:31.629Z,33.40
2018-04-20T17:28:57.409Z,33.90
2018-04-20T17:31:23.200Z,32.63
2018-04-20T17:33:48.977Z,33.43
2018-04-20T17:36:14.777Z,34.20
2018-04-20T17:38:40.565Z,33.50
2018-04-20T17:41:06.348Z,33.50
2018-04-20T17:43:32.165Z,35.00
2018-04-20T17:45:57.951Z,33.60
2018-04-20T17:48:23.735Z,33.90
2018-04-20T17:50:49.551Z,34.47
2018-04-20T17:53:15.342Z,35.77
2018-04-20T17:55:41.118Z,34.13
2018-04-20T17:58:06.905Z,33.03
2018-04-20T18:00:32.688Z,35.50
2018-04-20T18:03:05.369Z,34.00
2018-04-20T18:05:31.177Z,34.47
2018-04-20T18:07:56.960Z,35.23
2018-04-20T18:10:22.770Z,32.73
2018-04-20T18:12:48.545Z,32.80
2018-04-20T18:15:14.338Z,31.67
2018-04-20T18:17:40.416Z,34.97
2018-04-20T18:20:06.209Z,32.63
2018-04-20T18:22:31.996Z,33.53
2018-04-20T18:24:58.082Z,33.50
2018-04-20T18:27:23.870Z,34.87
2018-04-20T18:29:49.683Z,32.53
2018-04-20T18:32:15.505Z,33.40
2018-04-20T18:34:41.305Z,32.10
2018-04-20T18:37:07.181Z,32.63
2018-04-20T18:39:32.972Z,31.80
2018-04-20T18:41:58.768Z,32.57
2018-04-20T18:44:24.565Z,31.30
2018-04-20T18:46:50.368Z,33.47
2018-04-20T18:49:16.154Z,31.50
2018-04-20T18:51:41.949Z,30.17
2018-04-20T18:54:08.058Z,31.50
2018-04-20T18:56:33.841Z,32.33
2018-04-20T18:58:59.657Z,31.80
2018-04-20T19:01:25.455Z,32.50
2018-04-20T19:03:51.236Z,32.43
2018-04-20T19:06:17.041Z,31.97
2018-04-20T19:08:42.841Z,28.90
2018-04-20T19:11:08.642Z,28.73
2018-04-20T19:13:34.434Z,27.00
2018-04-20T19:16:00.236Z,25.93
2018-04-20T19:18:26.039Z,23.90
2018-04-20T19:20:51.833Z,24.47
2018-04-20T19:23:17.621Z,23.27
2018-04-20T19:25:43.401Z,20.93
2018-04-20T19:28:09.553Z,24.17
2018-04-20T19:30:35.349Z,24.13
2018-04-20T19:33:01.143Z,24.30
2018-04-20T19:35:26.951Z,21.80
2018-04-20T19:37:52.725Z,21.93
2018-04-20T19:40:18.519Z,22.50
2018-04-20T19:42:44.423Z,23.37
2018-04-20T19:45:10.253Z,29.13
2018-04-20T19:47:36.053Z,24.70
2018-04-20T19:50:01.870Z,24.60
2018-04-20T19:52:27.658Z,25.77
2018-04-20T19:54:53.466Z,23.77
2018-04-20T19:57:19.273Z,27.67
2018-04-20T19:59:45.067Z,26.20
2018-04-20T20:02:10.858Z,24.87
2018-04-20T20:04:36.667Z,25.93
2018-04-20T20:07:02.485Z,23.43
2018-04-20T20:09:28.258Z,25.20
2018-04-20T20:11:54.059Z,23.10
2018-04-20T20:14:19.869Z,26.17
2018-04-20T20:16:45.645Z,24.50
2018-04-20T20:19:11.441Z,24.50
2018-04-20T20:21:37.246Z,24.60
2018-04-20T20:24:03.041Z,25.53
2018-04-20T20:26:28.831Z,25.93
2018-04-20T20:28:54.645Z,28.67
2018-04-20T20:31:20.421Z,28.70
2018-04-20T20:33:46.208Z,29.77
2018-04-20T20:36:12.009Z,27.40
2018-04-20T20:38:37.791Z,28.33
2018-04-20T20:41:03.588Z,27.37
2018-04-20T20:43:29.625Z,28.80
2018-04-20T20:45:55.423Z,29.77
2018-04-20T20:48:21.210Z,27.13
2018-04-20T20:50:47.030Z,28.17
2018-04-20T20:53:12.805Z,31.20
2018-04-20T20:55:38.589Z,29.17
2018-04-20T20:58:04.391Z,31.30
2018-04-20T21:00:30.178Z,30.03
2018-04-20T21:02:56.013Z,30.30
2018-04-20T21:05:21.814Z,34.00
2018-04-20T21:07:47.618Z,32.00
2018-04-20T21:10:13.423Z,31.63
2018-04-20T21:12:39.222Z,32.93
2018-04-20T21:15:05.014Z,33.13
2018-04-20T21:17:30.823Z,32.33
2018-04-20T21:19:56.627Z,31.73
2018-04-20T21:22:22.563Z,31.87
2018-04-20T21:24:48.365Z,33.47
2018-04-20T21:27:14.181Z,34.37
2018-04-20T21:29:39.969Z,34.13
2018-04-20T21:32:05.745Z,34.70
2018-04-20T21:34:31.546Z,33.30
2018-04-20T21:36:57.338Z,35.63
2018-04-20T21:39:23.129Z,37.07
2018-04-20T21:41:48.938Z,35.47
2018-04-20T21:44:14.714Z,35.40
2018-04-20T21:46:40.529Z,36.10
2018-04-20T21:49:06.322Z,37.33
2018-04-20T21:51:32.114Z,34.67
2018-04-20T21:53:57.919Z,38.23
2018-04-20T21:56:23.721Z,36.60
2018-04-20T21:58:49.514Z,37.40
2018-04-20T22:01:15.332Z,39.37
2018-04-20T22:03:41.130Z,39.13
2018-04-20T22:06:06.938Z,39.90
2018-04-20T22:08:32.748Z,39.97
2018-04-20T22:10:58.558Z,37.27
2018-04-20T22:13:24.359Z,39.00
2018-04-20T22:15:50.164Z,42.83
2018-04-20T22:18:15.949Z,40.60
2018-04-20T22:20:41.728Z,42.30
2018-04-20T22:23:07.546Z,44.20
2018-04-20T22:25:33.342Z,44.43
2018-04-20T22:27:59.147Z,44.30
2018-04-20T22:30:24.958Z,46.77
2018-04-20T22:32:50.996Z,47.53
2018-04-20T22:35:16.782Z,46.43
2018-04-20T22:37:42.581Z,47.97
2018-04-20T22:40:08.381Z,49.20
2018-04-20T22:42:34.170Z,50.07
2018-04-20T22:44:59.963Z,51.13
2018-04-20T22:47:25.737Z,52.20
2018-04-20T22:49:51.540Z,54.97
2018-04-20T22:52:17.326Z,53.97
2018-04-20T22:54:43.122Z,55.20
2018-04-20T22:57:08.935Z,57.50
2018-04-20T22:59:34.949Z,56.23
2018-04-20T23:02:00.803Z,59.03
2018-04-20T23:04:26.608Z,58.50
2018-04-20T23:06:52.394Z,59.10
2018-04-20T23:09:18.202Z,59.60
2018-04-20T23:11:43.975Z,60.70
2018-04-20T23:14:09.755Z,63.40
2018-04-20T23:16:35.556Z,63.40
2018-04-20T23:19:01.334Z,65.93
2018-04-20T23:21:27.125Z,71.30
2018-04-20T23:23:53.162Z,67.73
2018-04-20T23:26:18.959Z,66.00
2018-04-20T23:28:44.746Z,68.23
2018-04-20T23:31:10.541Z,68.07
2018-04-20T23:33:36.321Z,91.17
2018-04-20T23:36:02.153Z,74.80
2018-04-20T23:38:27.932Z,84.83
2018-04-20T23:40:53.725Z,81.90
2018-04-20T23:43:19.669Z,68.97
2018-04-20T23:45:45.462Z,67.23
2018-04-20T23:48:11.251Z,65.63
2018-04-20T23:50:37.158Z,70.47
2018-04-20T23:53:02.954Z,66.50
2018-04-20T23:55:28.740Z,69.30
2018-04-20T23:57:54.547Z,72.57
